createdAt,value
2023-05-01T00:01:29.074Z,101523.88
2023-05-01T00:04:14.198Z,101518.19
2023-05-01T00:06:59.518Z,101511.84
2023-05-01T00:09:44.609Z,101501.06
2023-05-01T00:12:29.683Z,101522.16
2023-05-01T00:15:14.641Z,101520.28
2023-05-01T00:17:59.990Z,101502.59
2023-05-01T00:20:45.158Z,101520.16
2023-05-01T00:23:30.064Z,101516.69
2023-05-01T00:26:15.230Z,101521.22
2023-05-01T00:29:00.365Z,101502.38
2023-05-01T00:31:45.878Z,101519.34
2023-05-01T00:34:31.249Z,101511.44
2023-05-01T00:37:17.440Z,101500.38
2023-05-01T00:40:03.013Z,101499.94
2023-05-01T00:42:48.255Z,101485.63
2023-05-01T00:45:33.638Z,101487.19
2023-05-01T00:48:18.898Z,101468.34
2023-05-01T00:51:07.774Z,101475.28
2023-05-01T00:53:53.964Z,101470.34
2023-05-01T00:56:39.213Z,101461.06
2023-05-01T00:59:24.525Z,101448.72
2023-05-01T01:02:09.975Z,101447.22
2023-05-01T01:04:55.447Z,101436.16
2023-05-01T01:07:50.951Z,101445.94
2023-05-01T01:10:51.058Z,101439.59
2023-05-01T01:13:59.378Z,101433.75
2023-05-01T01:16:57.474Z,101435.81
2023-05-01T01:20:14.986Z,101427.13
2023-05-01T01:23:22.063Z,101418.97
2023-05-01T01:26:29.267Z,101429.19
2023-05-01T01:29:39.441Z,101422.25
2023-05-01T01:32:49.377Z,101425.72
2023-05-01T01:35:38.634Z,101408.13
2023-05-01T01:38:30.669Z,101421.81
2023-05-01T01:41:24.156Z,101417.84
2023-05-01T01:44:24.349Z,101421.88
2023-05-01T01:47:12.682Z,101419.44
2023-05-01T01:50:04.306Z,101400.91
2023-05-01T01:52:51.772Z,101375.53
2023-05-01T01:55:40.292Z,101395.56
2023-05-01T01:58:27.523Z,101395.66
2023-05-01T02:01:15.792Z,101399.13
2023-05-01T02:04:03.379Z,101388.53
2023-05-01T02:06:49.774Z,101380.94
2023-05-01T02:09:35.812Z,101395.66
2023-05-01T02:12:21.396Z,101391.34
2023-05-01T02:15:08.816Z,101396.53
2023-05-01T02:17:54.791Z,101394.16
2023-05-01T02:20:42.467Z,101392.50
2023-05-01T02:23:29.261Z,101375.81
2023-05-01T02:26:19.372Z,101384.31
2023-05-01T02:29:07.469Z,101371.03
2023-05-01T02:31:52.753Z,101384.88
2023-05-01T02:34:37.802Z,101375.72
2023-05-01T02:37:23.690Z,101370.09
2023-05-01T02:40:11.349Z,101377.00
2023-05-01T02:42:57.288Z,101381.66
2023-05-01T02:45:43.772Z,101381.94
2023-05-01T02:48:30.714Z,101369.97
2023-05-01T02:51:16.702Z,101370.81
2023-05-01T02:54:03.230Z,101356.94
2023-05-01T02:56:48.139Z,101362.56
2023-05-01T02:59:33.816Z,101353.28
2023-05-01T03:02:18.962Z,101359.72
2023-05-01T03:05:04.057Z,101346.88
2023-05-01T03:07:49.313Z,101344.28
2023-05-01T03:10:34.435Z,101346.25
2023-05-01T03:13:19.682Z,101345.66
2023-05-01T03:16:05.497Z,101352.69
2023-05-01T03:18:50.381Z,101350.06
2023-05-01T03:21:37.005Z,101341.53
2023-05-01T03:24:22.055Z,101341.63
2023-05-01T03:27:07.651Z,101341.69
2023-05-01T03:29:53.031Z,101328.34
2023-05-01T03:32:38.338Z,101320.09
2023-05-01T03:35:23.501Z,101328.53
2023-05-01T03:38:08.738Z,101325.13
2023-05-01T03:40:53.868Z,101340.56
2023-05-01T03:43:38.950Z,101341.94
2023-05-01T03:46:24.232Z,101340.50
2023-05-01T03:49:09.331Z,101344.31
2023-05-01T03:51:54.324Z,101342.63
2023-05-01T03:54:39.459Z,101346.16
2023-05-01T03:57:24.897Z,101329.63
2023-05-01T04:00:11.755Z,101340.75
2023-05-01T04:02:57.657Z,101336.72
2023-05-01T04:05:43.280Z,101327.78
2023-05-01T04:08:28.399Z,101338.00
2023-05-01T04:11:13.536Z,101312.75
2023-05-01T04:13:58.633Z,101335.72
2023-05-01T04:16:43.739Z,101337.25
2023-05-01T04:19:28.962Z,101328.81
2023-05-01T04:22:14.202Z,101334.53
2023-05-01T04:24:59.633Z,101331.25
2023-05-01T04:27:44.772Z,101346.00
2023-05-01T04:30:31.189Z,101338.09
2023-05-01T04:33:16.379Z,101346.00
2023-05-01T04:36:01.650Z,101352.00
2023-05-01T04:38:47.142Z,101337.44
2023-05-01T04:41:32.366Z,101355.63
2023-05-01T04:44:17.365Z,101346.59
2023-05-01T04:47:02.909Z,101355.47
2023-05-01T04:49:48.275Z,101349.22
2023-05-01T04:52:33.172Z,101343.06
2023-05-01T04:55:18.612Z,101358.06
2023-05-01T04:58:04.868Z,101354.38
2023-05-01T05:00:49.942Z,101357.53
2023-05-01T05:03:35.461Z,101359.38
2023-05-01T05:06:21.234Z,101365.44
2023-05-01T05:09:06.266Z,101352.28
2023-05-01T05:11:51.256Z,101358.25
2023-05-01T05:14:36.297Z,101365.09
2023-05-01T05:17:21.381Z,101365.69
2023-05-01T05:20:07.524Z,101361.38
2023-05-01T05:22:52.762Z,101368.13
2023-05-01T05:25:38.187Z,101373.88
2023-05-01T05:28:23.855Z,101366.63
2023-05-01T05:31:08.877Z,101371.31
2023-05-01T05:33:53.866Z,101366.75
2023-05-01T05:36:38.952Z,101371.31
2023-05-01T05:39:24.033Z,101352.41
2023-05-01T05:42:09.101Z,101372.91
2023-05-01T05:44:54.072Z,101356.56
2023-05-01T05:47:39.250Z,101372.31
2023-05-01T05:50:24.562Z,101352.94
2023-05-01T05:53:10.009Z,101347.72
2023-05-01T05:55:55.277Z,101355.31
2023-05-01T05:58:40.618Z,101365.03
2023-05-01T06:01:32.443Z,101369.44
2023-05-01T06:04:17.729Z,101374.25
2023-05-01T06:07:02.719Z,101372.09
2023-05-01T06:09:48.196Z,101361.59
2023-05-01T06:12:35.221Z,101365.94
2023-05-01T06:15:24.909Z,101381.22
2023-05-01T06:18:09.854Z,101377.91
2023-05-01T06:20:55.217Z,101363.03
2023-05-01T06:23:40.199Z,101381.41
2023-05-01T06:26:26.365Z,101374.09
2023-05-01T06:29:11.524Z,101370.34
2023-05-01T06:31:56.662Z,101373.28
2023-05-01T06:34:41.968Z,101369.72
2023-05-01T06:37:27.220Z,101365.59
2023-05-01T06:40:12.624Z,101369.22
2023-05-01T06:42:58.104Z,101375.22
2023-05-01T06:45:43.396Z,101372.00
2023-05-01T06:48:28.470Z,101366.06
2023-05-01T06:51:16.411Z,101370.41
2023-05-01T06:54:02.078Z,101366.00
2023-05-01T06:56:47.405Z,101356.72
2023-05-01T06:59:32.540Z,101367.31
2023-05-01T07:02:17.897Z,101363.84
2023-05-01T07:05:05.569Z,101364.22
2023-05-01T07:08:00.776Z,101382.66
2023-05-01T07:10:47.018Z,101379.38
2023-05-01T07:13:32.276Z,101362.56
2023-05-01T07:16:17.187Z,101378.56
2023-05-01T07:19:02.230Z,101379.84
2023-05-01T07:21:47.177Z,101378.31
2023-05-01T07:24:32.475Z,101382.56
2023-05-01T07:27:17.800Z,101365.22
2023-05-01T07:30:04.811Z,101385.66
2023-05-01T07:32:50.577Z,101390.16
2023-05-01T07:35:35.983Z,101386.06
2023-05-01T07:38:21.232Z,101380.19
2023-05-01T07:41:06.685Z,101392.69
2023-05-01T07:43:51.642Z,101384.09
2023-05-01T07:46:37.058Z,101394.28
2023-05-01T07:49:22.485Z,101388.44
2023-05-01T07:52:07.839Z,101389.13
2023-05-01T07:54:53.212Z,101393.47
2023-05-01T07:57:38.634Z,101391.59
2023-05-01T08:00:23.890Z,101392.19
2023-05-01T08:03:09.246Z,101396.41
2023-05-01T08:05:54.899Z,101398.50
2023-05-01T08:08:40.508Z,101395.06
2023-05-01T08:11:26.557Z,101406.09
2023-05-01T08:14:11.916Z,101393.88
2023-05-01T08:16:57.245Z,101394.63
2023-05-01T08:19:42.508Z,101385.47
2023-05-01T08:22:27.360Z,101393.13
2023-05-01T08:25:13.599Z,101398.41
2023-05-01T08:27:58.905Z,101398.19
2023-05-01T08:30:44.461Z,101400.59
2023-05-01T08:33:29.629Z,101397.66
2023-05-01T08:36:15.203Z,101391.56
2023-05-01T08:39:00.642Z,101406.16
2023-05-01T08:41:47.235Z,101410.16
2023-05-01T08:44:32.792Z,101414.91
2023-05-01T08:47:19.013Z,101402.16
2023-05-01T08:50:09.429Z,101398.28
2023-05-01T08:52:56.474Z,101402.78
2023-05-01T08:55:45.475Z,101409.88
2023-05-01T08:58:34.220Z,101416.38
2023-05-01T09:01:22.348Z,101418.94
2023-05-01T09:04:09.690Z,101416.06
2023-05-01T09:06:56.498Z,101419.22
2023-05-01T09:09:41.928Z,101423.84
2023-05-01T09:12:27.681Z,101423.53
2023-05-01T09:15:13.326Z,101423.38
2023-05-01T09:18:02.932Z,101420.09
2023-05-01T09:20:48.906Z,101421.94
2023-05-01T09:23:35.983Z,101411.50
2023-05-01T09:26:21.964Z,101420.41
2023-05-01T09:29:07.681Z,101420.19
2023-05-01T09:31:52.957Z,101414.34
2023-05-01T09:34:38.223Z,101404.34
2023-05-01T09:37:32.359Z,101412.91
2023-05-01T09:40:17.447Z,101413.78
2023-05-01T09:43:03.035Z,101421.84
2023-05-01T09:46:00.477Z,101423.06
2023-05-01T09:48:59.351Z,101417.50
2023-05-01T09:51:44.756Z,101423.66
2023-05-01T09:54:29.704Z,101429.03
2023-05-01T09:57:15.643Z,101421.25
2023-05-01T10:00:08.355Z,101424.53
2023-05-01T10:02:54.248Z,101439.81
2023-05-01T10:05:44.180Z,101424.59
2023-05-01T10:08:46.809Z,101438.31
2023-05-01T10:11:47.138Z,101439.75
2023-05-01T10:14:38.559Z,101443.81
2023-05-01T10:17:23.819Z,101415.00
2023-05-01T10:20:11.477Z,101437.22
2023-05-01T10:22:56.758Z,101449.25
2023-05-01T10:25:42.409Z,101446.94
2023-05-01T10:28:28.781Z,101442.34
2023-05-01T10:31:14.146Z,101446.66
2023-05-01T10:34:03.124Z,101451.31
2023-05-01T10:37:07.074Z,101450.69
2023-05-01T10:39:52.007Z,101450.72
2023-05-01T10:43:16.969Z,101455.28
2023-05-01T10:46:08.051Z,101462.91
2023-05-01T10:48:54.336Z,101454.44
2023-05-01T10:51:58.412Z,101456.13
2023-05-01T10:54:43.566Z,101457.97
2023-05-01T10:57:43.715Z,101443.47
2023-05-01T11:00:28.843Z,101451.47
2023-05-01T11:03:23.086Z,101450.72
2023-05-01T11:06:08.645Z,101446.88
2023-05-01T11:08:54.790Z,101449.50
2023-05-01T11:11:40.034Z,101444.78
2023-05-01T11:14:25.714Z,101449.94
2023-05-01T11:17:10.610Z,101440.78
2023-05-01T11:19:56.557Z,101443.50
2023-05-01T11:22:49.013Z,101450.25
2023-05-01T11:25:34.301Z,101428.91
2023-05-01T11:28:21.542Z,101428.88
2023-05-01T11:31:06.888Z,101442.22
2023-05-01T11:33:52.403Z,101439.31
2023-05-01T11:36:49.833Z,101431.06
2023-05-01T11:39:35.042Z,101433.44
2023-05-01T11:42:22.632Z,101437.91
2023-05-01T11:45:11.165Z,101426.91
2023-05-01T11:47:56.551Z,101427.63
2023-05-01T11:50:42.038Z,101423.00
2023-05-01T11:53:27.645Z,101413.78
2023-05-01T11:56:27.264Z,101425.78
2023-05-01T11:59:18.873Z,101431.78
2023-05-01T12:02:03.942Z,101416.34
2023-05-01T12:04:49.112Z,101425.66
2023-05-01T12:07:37.481Z,101414.41
2023-05-01T12:10:23.144Z,101423.84
2023-05-01T12:13:10.249Z,101412.31
2023-05-01T12:15:56.249Z,101414.91
2023-05-01T12:18:42.980Z,101410.94
2023-05-01T12:21:28.150Z,101402.84
2023-05-01T12:24:18.730Z,101420.28
2023-05-01T12:27:04.051Z,101414.44
2023-05-01T12:29:49.279Z,101411.22
2023-05-01T12:32:34.716Z,101417.41
2023-05-01T12:35:20.289Z,101412.69
2023-05-01T12:38:17.285Z,101411.00
2023-05-01T12:41:02.710Z,101405.47
2023-05-01T12:43:47.931Z,101401.97
2023-05-01T12:46:33.120Z,101412.94
2023-05-01T12:49:19.148Z,101411.03
2023-05-01T12:52:06.310Z,101405.88
2023-05-01T12:54:51.632Z,101395.78
2023-05-01T12:57:51.532Z,101411.16
2023-05-01T13:00:54.672Z,101419.38
2023-05-01T13:03:44.711Z,101427.63
2023-05-01T13:06:36.231Z,101428.81
2023-05-01T13:09:27.244Z,101441.59
2023-05-01T13:12:12.455Z,101431.34
2023-05-01T13:14:58.915Z,101436.13
2023-05-01T13:17:44.429Z,101437.63
2023-05-01T13:20:30.256Z,101443.47
2023-05-01T13:23:15.637Z,101438.91
2023-05-01T13:26:01.010Z,101442.66
2023-05-01T13:28:46.954Z,101440.38
2023-05-01T13:31:32.285Z,101444.09
2023-05-01T13:34:25.559Z,101439.63
2023-05-01T13:37:14.648Z,101444.75
2023-05-01T13:39:59.938Z,101441.97
2023-05-01T13:42:46.000Z,101441.34
2023-05-01T13:45:31.259Z,101446.59
2023-05-01T13:48:17.732Z,101444.19
2023-05-01T13:51:02.674Z,101448.88
2023-05-01T13:53:47.874Z,101456.81
2023-05-01T13:56:35.365Z,101452.03
2023-05-01T13:59:20.250Z,101463.19
2023-05-01T14:02:29.279Z,101463.41
2023-05-01T14:05:16.179Z,101465.38
2023-05-01T14:08:02.145Z,101458.03
2023-05-01T14:10:47.517Z,101457.50
2023-05-01T14:13:33.346Z,101455.78
2023-05-01T14:16:26.927Z,101456.88
2023-05-01T14:19:14.959Z,101459.31
2023-05-01T14:22:00.214Z,101452.78
2023-05-01T14:24:46.029Z,101458.34
2023-05-01T14:27:31.502Z,101452.63
2023-05-01T14:30:26.792Z,101461.06
2023-05-01T14:33:13.311Z,101447.81
2023-05-01T14:35:58.647Z,101459.53
2023-05-01T14:38:46.683Z,101449.72
2023-05-01T14:41:32.067Z,101439.00
2023-05-01T14:44:20.129Z,101456.34
2023-05-01T14:47:09.415Z,101451.69
2023-05-01T14:49:54.564Z,101457.19
2023-05-01T14:52:39.724Z,101445.97
2023-05-01T14:55:30.784Z,101453.88
2023-05-01T14:58:15.869Z,101466.56
2023-05-01T15:01:02.491Z,101450.78
2023-05-01T15:03:47.984Z,101468.56
2023-05-01T15:06:34.418Z,101475.91
2023-05-01T15:09:19.589Z,101470.47
2023-05-01T15:12:07.261Z,101478.88
2023-05-01T15:14:52.676Z,101472.72
2023-05-01T15:17:37.730Z,101475.44
2023-05-01T15:20:23.118Z,101463.38
2023-05-01T15:23:09.156Z,101474.16
2023-05-01T15:25:54.720Z,101471.56
2023-05-01T15:28:39.907Z,101464.72
2023-05-01T15:31:25.443Z,101478.72
2023-05-01T15:34:10.465Z,101479.63
2023-05-01T15:36:55.584Z,101474.03
2023-05-01T15:39:40.702Z,101471.78
2023-05-01T15:42:26.210Z,101476.94
2023-05-01T15:45:11.696Z,101479.63
2023-05-01T15:47:56.600Z,101479.22
2023-05-01T15:50:41.796Z,101489.63
2023-05-01T15:53:26.732Z,101493.56
2023-05-01T15:56:11.771Z,101491.19
2023-05-01T15:58:56.932Z,101495.34
2023-05-01T16:01:42.448Z,101494.78
2023-05-01T16:04:27.777Z,101495.09
2023-05-01T16:07:13.056Z,101506.66
2023-05-01T16:09:58.552Z,101505.84
2023-05-01T16:12:43.951Z,101506.09
2023-05-01T16:15:30.456Z,101495.50
2023-05-01T16:18:20.692Z,101507.38
2023-05-01T16:21:05.957Z,101511.41
2023-05-01T16:23:54.596Z,101510.72
2023-05-01T16:26:41.457Z,101513.13
2023-05-01T16:29:26.940Z,101511.56
2023-05-01T16:32:13.599Z,101502.75
2023-05-01T16:34:58.734Z,101511.56
2023-05-01T16:37:44.174Z,101496.88
2023-05-01T16:40:29.254Z,101508.22
2023-05-01T16:43:14.525Z,101512.97
2023-05-01T16:45:59.621Z,101500.53
2023-05-01T16:48:44.868Z,101524.88
2023-05-01T16:51:30.133Z,101521.34
2023-05-01T16:54:15.985Z,101522.59
2023-05-01T16:57:03.173Z,101526.22
2023-05-01T16:59:48.123Z,101527.47
2023-05-01T17:02:33.649Z,101527.75
2023-05-01T17:05:18.698Z,101531.81
2023-05-01T17:08:03.880Z,101539.94
2023-05-01T17:10:49.027Z,101535.06
2023-05-01T17:13:34.300Z,101534.22
2023-05-01T17:16:19.530Z,101528.06
2023-05-01T17:19:08.896Z,101523.44
2023-05-01T17:21:54.231Z,101531.84
2023-05-01T17:24:39.605Z,101535.06
2023-05-01T17:27:24.770Z,101542.16
2023-05-01T17:30:10.058Z,101539.66
2023-05-01T17:32:57.100Z,101541.44
2023-05-01T17:35:42.421Z,101539.78
2023-05-01T17:38:27.565Z,101539.03
2023-05-01T17:41:12.588Z,101524.47
2023-05-01T17:43:58.040Z,101553.59
2023-05-01T17:46:43.330Z,101563.44
2023-05-01T17:49:28.509Z,101556.84
2023-05-01T17:52:13.853Z,101567.25
2023-05-01T17:54:59.202Z,101568.41
2023-05-01T17:57:45.682Z,101568.13
2023-05-01T18:00:31.581Z,101570.97
2023-05-01T18:03:16.981Z,101568.97
2023-05-01T18:06:02.744Z,101568.41
2023-05-01T18:08:49.876Z,101563.66
2023-05-01T18:11:34.880Z,101573.44
2023-05-01T18:14:20.021Z,101586.50
2023-05-01T18:17:05.238Z,101575.28
2023-05-01T18:19:50.634Z,101570.06
2023-05-01T18:22:35.902Z,101572.25
2023-05-01T18:25:21.256Z,101573.47
2023-05-01T18:28:06.560Z,101571.44
2023-05-01T18:30:52.018Z,101576.91
2023-05-01T18:33:37.218Z,101578.63
2023-05-01T18:36:22.287Z,101574.53
2023-05-01T18:39:07.630Z,101571.56
2023-05-01T18:41:54.859Z,101567.81
2023-05-01T18:44:40.080Z,101585.09
2023-05-01T18:47:26.371Z,101590.88
2023-05-01T18:50:11.659Z,101587.03
2023-05-01T18:52:57.040Z,101581.19
2023-05-01T18:55:41.845Z,101602.13
2023-05-01T18:58:27.514Z,101607.78
2023-05-01T19:01:12.750Z,101605.72
2023-05-01T19:03:59.971Z,101619.47
2023-05-01T19:06:45.526Z,101622.72
2023-05-01T19:09:30.920Z,101624.66
2023-05-01T19:12:16.473Z,101623.31
2023-05-01T19:15:02.057Z,101629.09
2023-05-01T19:17:47.464Z,101633.19
2023-05-01T19:20:35.489Z,101628.88
2023-05-01T19:23:20.765Z,101638.59
2023-05-01T19:26:06.433Z,101638.72
2023-05-01T19:28:51.509Z,101649.41
2023-05-01T19:31:37.068Z,101650.50
2023-05-01T19:34:22.129Z,101655.41
2023-05-01T19:37:07.325Z,101663.06
2023-05-01T19:39:52.394Z,101652.06
2023-05-01T19:42:37.427Z,101667.03
2023-05-01T19:45:23.083Z,101675.94
2023-05-01T19:48:08.367Z,101680.56
2023-05-01T19:50:53.591Z,101683.44
2023-05-01T19:53:39.056Z,101682.47
2023-05-01T19:56:25.229Z,101692.09
2023-05-01T19:59:10.240Z,101697.47
2023-05-01T20:01:55.321Z,101708.28
2023-05-01T20:04:40.689Z,101685.22
2023-05-01T20:07:27.151Z,101700.09
2023-05-01T20:10:11.996Z,101694.63
2023-05-01T20:12:56.888Z,101714.50
2023-05-01T20:15:43.148Z,101718.66
2023-05-01T20:18:29.114Z,101717.31
2023-05-01T20:21:14.386Z,101719.66
2023-05-01T20:23:59.443Z,101716.84
2023-05-01T20:26:44.680Z,101725.41
2023-05-01T20:29:29.767Z,101733.31
2023-05-01T20:32:14.863Z,101724.47
2023-05-01T20:35:00.358Z,101743.38
2023-05-01T20:37:45.542Z,101745.59
2023-05-01T20:40:31.940Z,101746.78
2023-05-01T20:43:16.984Z,101750.81
2023-05-01T20:46:02.179Z,101753.06
2023-05-01T20:48:47.555Z,101743.88
2023-05-01T20:51:32.679Z,101748.19
2023-05-01T20:54:17.605Z,101762.88
2023-05-01T20:57:03.872Z,101750.44
2023-05-01T20:59:50.130Z,101763.50
2023-05-01T21:02:39.628Z,101772.53
2023-05-01T21:05:24.834Z,101775.34
2023-05-01T21:08:10.188Z,101776.22
2023-05-01T21:10:55.530Z,101784.22
2023-05-01T21:13:40.611Z,101785.06
2023-05-01T21:16:28.037Z,101792.22
2023-05-01T21:19:15.117Z,101787.91
2023-05-01T21:22:00.497Z,101793.28
2023-05-01T21:24:51.724Z,101796.06
2023-05-01T21:27:40.633Z,101803.00
2023-05-01T21:30:34.214Z,101801.34
2023-05-01T21:33:19.793Z,101791.41
2023-05-01T21:36:05.253Z,101808.94
2023-05-01T21:38:50.360Z,101815.34
2023-05-01T21:41:35.626Z,101811.88
2023-05-01T21:44:22.581Z,101797.38
2023-05-01T21:47:09.049Z,101819.13
2023-05-01T21:49:57.368Z,101818.31
2023-05-01T21:52:43.875Z,101813.03
2023-05-01T21:55:29.850Z,101814.25
2023-05-01T21:58:15.375Z,101818.38
2023-05-01T22:01:00.778Z,101819.94
2023-05-01T22:03:46.869Z,101830.59
2023-05-01T22:06:32.431Z,101832.28
2023-05-01T22:09:17.474Z,101834.00
2023-05-01T22:12:02.508Z,101819.81
2023-05-01T22:14:48.566Z,101833.66
2023-05-01T22:17:33.860Z,101829.81
2023-05-01T22:20:18.921Z,101838.56
2023-05-01T22:23:04.376Z,101837.94
2023-05-01T22:25:49.722Z,101836.47
2023-05-01T22:28:34.885Z,101834.56
2023-05-01T22:31:20.301Z,101841.53
2023-05-01T22:34:06.690Z,101845.97
2023-05-01T22:36:51.730Z,101840.34
2023-05-01T22:39:36.765Z,101852.38
2023-05-01T22:42:23.249Z,101853.50
2023-05-01T22:45:08.899Z,101859.75
2023-05-01T22:47:54.424Z,101837.88
2023-05-01T22:50:39.801Z,101854.06
2023-05-01T22:53:24.738Z,101860.50
2023-05-01T22:56:09.878Z,101850.19
2023-05-01T22:58:55.446Z,101862.44
2023-05-01T23:01:40.720Z,101867.22
2023-05-01T23:04:25.904Z,101859.03
2023-05-01T23:07:13.788Z,101855.97
2023-05-01T23:09:59.322Z,101873.16
2023-05-01T23:12:45.862Z,101873.63
2023-05-01T23:15:31.143Z,101868.53
2023-05-01T23:18:23.607Z,101874.84
2023-05-01T23:21:10.800Z,101878.78
2023-05-01T23:23:55.786Z,101867.25
2023-05-01T23:26:41.441Z,101881.25
2023-05-01T23:29:26.788Z,101878.88
2023-05-01T23:32:22.072Z,101863.09
2023-05-01T23:35:15.459Z,101879.44
2023-05-01T23:38:00.338Z,101886.97
2023-05-01T23:40:45.986Z,101877.84
2023-05-01T23:43:32.628Z,101894.66
2023-05-01T23:46:17.689Z,101891.63
2023-05-01T23:49:03.011Z,101896.50
2023-05-01T23:51:48.171Z,101901.00
2023-05-01T23:54:33.482Z,101901.19
2023-05-01T23:57:18.682Z,101902.84
